Time;durP1;ratioP1;P1;durP2;ratioP2;P2;SDS_P1;SDS_P2;PMS_P1;PMS_P2;Temp;Humidity;BMP_temperature;BMP_pressure;BME280_temperature;BME280_humidity;BME280_pressure;Samples;Min_cycle;Max_cycle;Signal;HPM_P1;HPM_P2
2021/11/28 00:00:26;;;;;;;7.70;5.37;;;2.80;1.00;;;;;;5049082;28;20184;-80
2021/11/28 00:02:52;;;;;;;7.23;5.07;;;2.80;1.00;;;;;;5036405;28;20193;-81
2021/11/28 00:05:20;;;;;;;5.47;4.97;;;2.80;1.00;;;;;;5047970;28;20241;-80
2021/11/28 00:08:03;;;;;;;5.30;4.87;;;;;;;;;;5033657;28;20230;-80
2021/11/28 00:13:24;;;;;;;8.37;5.67;;;2.80;1.00;;;;;;5034062;28;20222;-80
2021/11/28 00:15:50;;;;;;;5.57;5.13;;;2.90;1.00;;;;;;5039537;28;20278;-80
2021/11/28 00:18:15;;;;;;;5.30;4.80;;;2.80;1.00;;;;;;5039921;28;20215;-80
2021/11/28 00:20:41;;;;;;;7.10;5.40;;;2.80;1.00;;;;;;5035288;28;20204;-80
2021/11/28 00:23:07;;;;;;;5.83;5.20;;;;;;;;;;5037935;28;20690;-80
2021/11/28 00:25:33;;;;;;;6.27;5.63;;;2.80;1.00;;;;;;5036614;28;20195;-80
2021/11/28 00:27:59;;;;;;;6.73;5.63;;;2.80;1.00;;;;;;5030825;28;20604;-80
2021/11/28 00:30:27;;;;;;;5.67;5.13;;;2.80;1.00;;;;;;5025615;28;20199;-80
2021/11/28 00:32:54;;;;;;;5.23;4.70;;;;;;;;;;5035874;28;20223;-80
2021/11/28 00:35:20;;;;;;;6.07;5.00;;;;;;;;;;5038034;28;20195;-80
2021/11/28 00:37:46;;;;;;;8.70;5.00;;;;;;;;;;5025281;28;20227;-80
2021/11/28 00:40:13;;;;;;;5.63;5.13;;;2.80;1.00;;;;;;5041609;28;20195;-80
2021/11/28 00:42:38;;;;;;;5.97;5.40;;;6.00;1.00;;;;;;5027189;28;20191;-80
2021/11/28 00:45:05;;;;;;;4.93;4.53;;;2.90;1.00;;;;;;5036800;28;20221;-80
2021/11/28 00:47:31;;;;;;;6.67;5.07;;;2.90;1.00;;;;;;5039086;28;20211;-80
2021/11/28 00:50:06;;;;;;;5.47;5.00;;;3.00;1.00;;;;;;5032406;28;20201;-80
2021/11/28 00:52:32;;;;;;;7.10;5.30;;;3.00;1.00;;;;;;5029493;28;20175;-80
2021/11/28 00:54:58;;;;;;;5.03;4.53;;;3.30;1.00;;;;;;5029884;28;20219;-80
2021/11/28 00:57:25;;;;;;;8.73;5.03;;;3.00;1.00;;;;;;5038337;28;20230;-80
2021/11/28 00:59:51;;;;;;;7.87;4.97;;;2.90;1.00;;;;;;5048511;28;20187;-80
2021/11/28 01:02:18;;;;;;;6.03;5.43;;;2.90;1.00;;;;;;5034588;28;20248;-80
2021/11/28 01:04:44;;;;;;;5.90;5.10;;;2.90;1.00;;;;;;5039495;28;20282;-80
2021/11/28 01:07:13;;;;;;;5.20;4.80;;;;;;;;;;5033172;28;20217;-80
2021/11/28 01:09:40;;;;;;;5.00;4.50;;;;;;;;;;5030408;28;20271;-82
2021/11/28 01:12:07;;;;;;;6.03;4.87;;;3.00;1.00;;;;;;5038737;28;20207;-82
2021/11/28 01:14:33;;;;;;;5.00;4.50;;;;;;;;;;5053504;28;20185;-82
2021/11/28 01:17:01;;;;;;;6.10;4.80;;;2.90;1.00;;;;;;5037312;28;20189;-82
2021/11/28 01:19:28;;;;;;;5.57;4.67;;;2.90;1.00;;;;;;5032791;28;20202;-83
2021/11/28 01:21:54;;;;;;;5.87;4.30;;;;;;;;;;5037285;28;20194;-85
2021/11/28 01:24:20;;;;;;;6.90;4.73;;;;;;;;;;5027408;28;20192;-83
2021/11/28 01:26:46;;;;;;;5.73;4.20;;;2.90;1.00;;;;;;5023720;28;20687;-83
2021/11/28 01:29:12;;;;;;;4.53;4.13;;;2.90;1.00;;;;;;5025321;28;20250;-82
2021/11/28 01:31:38;;;;;;;4.70;4.30;;;2.90;1.00;;;;;;5025864;28;20187;-83
2021/11/28 01:34:03;;;;;;;6.43;4.90;;;2.90;1.00;;;;;;5048597;28;20245;-82
2021/11/28 01:36:29;;;;;;;7.80;4.40;;;2.90;1.00;;;;;;5038344;28;20257;-82
2021/11/28 01:38:55;;;;;;;4.43;3.97;;;3.00;1.00;;;;;;5036896;28;20188;-82
2021/11/28 01:41:21;;;;;;;4.73;4.20;;;;;;;;;;5039060;28;20207;-82
2021/11/28 01:43:51;;;;;;;4.63;4.23;;;3.00;1.00;;;;;;5037405;28;20264;-82
2021/11/28 01:46:19;;;;;;;4.83;4.40;;;3.10;1.00;;;;;;5020013;28;20241;-82
2021/11/28 01:48:45;;;;;;;5.37;4.53;;;3.10;1.00;;;;;;5026815;28;20223;-83
2021/11/28 01:51:10;;;;;;;4.60;4.20;;;3.00;1.00;;;;;;5034925;28;20644;-82
2021/11/28 01:53:36;;;;;;;4.20;3.90;;;3.00;1.00;;;;;;5036290;28;20287;-83
2021/11/28 01:56:02;;;;;;;4.80;4.40;;;5.30;1.00;;;;;;5038486;28;20185;-82
2021/11/28 01:58:28;;;;;;;7.80;4.73;;;;;;;;;;5031009;28;20191;-82
2021/11/28 02:00:59;;;;;;;6.43;4.47;;;3.00;1.00;;;;;;5024137;28;20196;-83
2021/11/28 02:03:26;;;;;;;4.53;3.93;;;3.30;1.00;;;;;;5030501;28;20191;-82
2021/11/28 02:05:55;;;;;;;4.80;4.30;;;2.90;1.00;;;;;;5035230;28;20191;-83
2021/11/28 02:08:21;;;;;;;4.40;3.80;;;2.90;1.00;;;;;;5028929;28;21152;-82
2021/11/28 02:10:48;;;;;;;4.10;3.80;;;2.90;1.00;;;;;;5028410;28;20710;-83
2021/11/28 02:13:15;;;;;;;5.00;4.03;;;3.00;1.00;;;;;;5036893;28;20211;-82
2021/11/28 02:15:41;;;;;;;7.73;4.10;;;;;;;;;;5031823;28;20189;-82
2021/11/28 02:18:08;;;;;;;4.70;4.20;;;;;;;;;;5047353;28;20195;-82
2021/11/28 02:20:41;;;;;;;4.37;3.97;;;3.00;1.00;;;;;;5035295;28;20203;-82
2021/11/28 02:23:07;;;;;;;5.50;4.33;;;3.00;1.00;;;;;;5028354;28;20187;-83
2021/11/28 02:25:33;;;;;;;4.17;3.83;;;3.00;1.00;;;;;;5032277;28;20201;-83
2021/11/28 02:27:59;;;;;;;6.63;4.43;;;;;;;;;;5031330;28;20236;-83
2021/11/28 02:30:25;;;;;;;6.83;4.20;;;;;;;;;;5038346;28;20192;-82
2021/11/28 02:32:51;;;;;;;4.67;4.23;;;;;;;;;;5033775;28;20184;-84
2021/11/28 02:35:18;;;;;;;5.30;4.13;;;3.00;1.00;;;;;;5034911;28;20179;-82
2021/11/28 02:37:45;;;;;;;3.70;3.40;;;3.00;1.00;;;;;;5031560;28;20255;-83
2021/11/28 02:40:18;;;;;;;5.03;4.23;;;3.00;1.00;;;;;;5026966;28;20205;-83
2021/11/28 02:42:44;;;;;;;4.77;4.30;;;;;;;;;;5037729;28;20200;-83
2021/11/28 02:45:11;;;;;;;4.47;4.10;;;;;;;;;;5035053;28;20175;-83
2021/11/28 02:47:37;;;;;;;4.83;4.43;;;3.10;1.00;;;;;;5030460;28;20226;-83
2021/11/28 02:50:05;;;;;;;4.67;4.10;;;3.10;1.00;;;;;;5031399;28;20271;-83
2021/11/28 02:52:31;;;;;;;5.00;4.10;;;;;;;;;;5036381;28;20203;-83
2021/11/28 02:54:57;;;;;;;6.27;3.97;;;;;;;;;;5033409;28;20196;-83
2021/11/28 02:57:23;;;;;;;4.33;3.93;;;;;;;;;;5056010;28;20672;-82
2021/11/28 02:59:49;;;;;;;4.77;4.37;;;;;;;;;;5031168;28;20203;-83
2021/11/28 03:02:15;;;;;;;6.00;4.27;;;;;;;;;;5033189;28;20254;-83
2021/11/28 03:04:41;;;;;;;4.87;4.10;;;3.00;1.00;;;;;;5034862;28;20193;-83
2021/11/28 03:07:07;;;;;;;4.63;4.03;;;;;;;;;;5040114;28;20224;-83
2021/11/28 03:09:33;;;;;;;4.93;3.53;;;3.10;1.00;;;;;;5052541;28;20786;-83
2021/11/28 03:11:58;;;;;;;4.70;4.00;;;3.00;1.00;;;;;;5027978;28;20204;-83
2021/11/28 03:14:25;;;;;;;6.37;3.97;;;3.00;1.00;;;;;;5053862;28;20192;-83
2021/11/28 03:16:51;;;;;;;4.53;3.80;;;;;;;;;;5050371;28;20191;-83
2021/11/28 03:19:17;;;;;;;4.40;4.00;;;;;;;;;;5032285;28;20203;-83
2021/11/28 03:21:43;;;;;;;4.17;3.70;;;3.00;1.00;;;;;;5030111;28;20191;-82
2021/11/28 03:24:08;;;;;;;8.13;4.53;;;5.40;1.00;;;;;;5033198;28;20216;-83
2021/11/28 03:26:39;;;;;;;4.50;4.17;;;3.00;1.00;;;;;;5033618;28;20213;-82
2021/11/28 03:29:15;;;;;;;4.67;4.20;;;2.90;1.00;;;;;;5029020;28;20215;-83
2021/11/28 03:31:43;;;;;;;6.10;4.30;;;3.00;1.00;;;;;;5030469;28;20605;-83
2021/11/28 03:34:11;;;;;;;4.47;3.60;;;3.00;1.00;;;;;;5026072;28;20566;-83
2021/11/28 03:36:43;;;;;;;5.77;3.97;;;3.00;1.00;;;;;;5026928;28;20196;-83
2021/11/28 03:39:11;;;;;;;4.30;3.90;;;3.00;1.00;;;;;;5039878;28;20210;-83
2021/11/28 03:41:38;;;;;;;4.13;3.73;;;3.00;1.00;;;;;;5038039;28;20862;-83
2021/11/28 03:44:06;;;;;;;3.80;3.53;;;3.00;1.00;;;;;;5028497;28;20176;-83
2021/11/28 03:46:32;;;;;;;5.17;4.10;;;3.00;1.00;;;;;;5024994;28;20192;-82
2021/11/28 03:48:59;;;;;;;4.20;3.80;;;3.10;1.00;;;;;;5031465;28;20223;-83
2021/11/28 03:51:26;;;;;;;3.87;3.47;;;3.10;1.00;;;;;;5051867;28;20188;-83
2021/11/28 03:53:52;;;;;;;4.50;3.63;;;;;;;;;;5030524;28;20209;-83
2021/11/28 03:56:18;;;;;;;4.40;4.00;;;;;;;;;;5030552;28;20652;-83
2021/11/28 03:58:43;;;;;;;3.67;3.37;;;3.00;1.00;;;;;;5028449;28;20300;-83
2021/11/28 04:01:11;;;;;;;5.37;3.70;;;3.00;1.00;;;;;;5033749;28;20270;-83
2021/11/28 04:03:38;;;;;;;5.40;3.13;;;;;;;;;;5036378;28;20201;-83
2021/11/28 04:06:04;;;;;;;4.93;4.00;;;;;;;;;;5048053;28;20758;-82
2021/11/28 04:08:30;;;;;;;4.37;3.90;;;;;;;;;;5030476;28;20216;-83
2021/11/28 04:10:56;;;;;;;6.80;3.80;;;;;;;;;;5036996;28;20184;-83
2021/11/28 04:13:22;;;;;;;4.73;3.73;;;;;;;;;;5029394;28;20199;-82
2021/11/28 04:15:48;;;;;;;3.43;3.13;;;2.90;1.00;;;;;;5034954;28;20246;-83
2021/11/28 04:18:14;;;;;;;4.20;3.80;;;;;;;;;;5038138;28;20290;-82
2021/11/28 04:20:41;;;;;;;4.80;3.93;;;3.00;1.00;;;;;;5033964;28;20254;-83
2021/11/28 04:23:07;;;;;;;4.30;3.80;;;2.90;1.00;;;;;;5034150;28;20643;-83
2021/11/28 04:25:34;;;;;;;4.07;3.77;;;;;;;;;;5035918;28;20202;-83
2021/11/28 04:27:59;;;;;;;4.57;4.17;;;2.90;1.00;;;;;;5046331;28;20222;-83
2021/11/28 04:30:28;;;;;;;4.70;4.30;;;;;;;;;;5035785;28;20188;-82
2021/11/28 04:32:54;;;;;;;4.80;3.57;;;;;;;;;;5033538;28;20187;-83
2021/11/28 04:35:20;;;;;;;4.73;4.10;;;2.90;1.00;;;;;;5035815;28;20345;-83
2021/11/28 04:37:46;;;;;;;5.63;4.20;;;;;;;;;;5035994;28;20207;-82
2021/11/28 04:40:13;;;;;;;5.43;3.97;;;2.90;1.00;;;;;;5038517;28;20206;-83
2021/11/28 04:42:39;;;;;;;5.77;4.53;;;;;;;;;;5036796;28;20200;-83
2021/11/28 04:45:07;;;;;;;4.67;4.13;;;2.90;1.00;;;;;;5031451;28;20187;-83
2021/11/28 04:47:36;;;;;;;4.70;4.23;;;2.90;1.00;;;;;;5034538;28;20211;-83
2021/11/28 04:50:04;;;;;;;4.13;3.77;;;2.90;1.00;;;;;;5037436;28;20196;-82
2021/11/28 04:52:30;;;;;;;4.40;4.00;;;;;;;;;;5038959;28;20188;-83
2021/11/28 04:54:56;;;;;;;6.13;4.00;;;3.00;1.00;;;;;;5035689;28;20188;-83
2021/11/28 04:57:21;;;;;;;4.07;3.77;;;2.90;1.00;;;;;;5034291;28;20195;-82
2021/11/28 04:59:48;;;;;;;5.07;4.47;;;;;;;;;;5028990;28;20285;-82
2021/11/28 05:02:14;;;;;;;4.20;3.80;;;;;;;;;;5031040;28;20678;-83
2021/11/28 05:04:40;;;;;;;8.17;4.60;;;2.90;1.00;;;;;;5029346;28;20210;-83
2021/11/28 05:07:05;;;;;;;5.73;4.50;;;2.80;1.00;;;;;;5028163;28;20199;-82
2021/11/28 05:09:31;;;;;;;4.90;4.10;;;2.80;1.00;;;;;;5028778;28;20276;-83
2021/11/28 05:11:57;;;;;;;4.63;4.23;;;2.90;1.00;;;;;;5037042;28;20676;-83
2021/11/28 05:14:23;;;;;;;6.47;4.33;;;2.90;1.00;;;;;;5031321;28;20627;-82
2021/11/28 05:16:49;;;;;;;5.50;4.80;;;;;;;;;;5032520;28;20204;-82
2021/11/28 05:19:15;;;;;;;4.83;3.90;;;;;;;;;;5029553;28;20199;-83
2021/11/28 05:21:42;;;;;;;4.10;3.80;;;;;;;;;;5029470;28;20201;-81
2021/11/28 05:24:08;;;;;;;5.47;4.60;;;;;;;;;;5049806;28;20229;-81
2021/11/28 05:26:34;;;;;;;5.30;4.07;;;;;;;;;;5031830;28;20213;-81
2021/11/28 05:29:00;;;;;;;4.43;4.03;;;;;;;;;;5053867;28;20207;-81
2021/11/28 05:31:26;;;;;;;5.27;4.20;;;;;;;;;;5034410;28;20190;-81
2021/11/28 05:33:52;;;;;;;5.37;4.27;;;2.90;1.00;;;;;;5034464;28;20259;-81
2021/11/28 05:36:18;;;;;;;4.90;4.27;;;2.90;1.00;;;;;;5025855;28;20229;-81
2021/11/28 05:38:44;;;;;;;3.83;3.53;;;2.90;1.00;;;;;;5032965;28;20195;-81
2021/11/28 05:41:10;;;;;;;4.73;4.30;;;;;;;;;;5036768;28;20195;-81
2021/11/28 05:43:39;;;;;;;5.23;4.70;;;;;;;;;;5031067;28;20262;-81
2021/11/28 05:46:05;;;;;;;5.80;4.83;;;2.90;1.00;;;;;;5037097;28;20196;-81
2021/11/28 05:48:31;;;;;;;4.97;4.50;;;2.80;1.00;;;;;;5039234;28;20673;-81
2021/11/28 05:50:58;;;;;;;5.87;4.87;;;;;;;;;;5048891;28;20195;-81
2021/11/28 05:53:24;;;;;;;5.93;4.53;;;;;;;;;;5037642;28;20187;-81
2021/11/28 05:55:51;;;;;;;5.10;4.23;;;;;;;;;;5024619;28;21017;-81
2021/11/28 05:58:17;;;;;;;4.60;4.20;;;2.80;1.00;;;;;;5033505;28;20192;-81
2021/11/28 06:00:43;;;;;;;5.10;4.70;;;;;;;;;;5044429;28;20755;-82
2021/11/28 06:03:09;;;;;;;4.80;4.30;;;2.80;1.00;;;;;;5037734;28;20202;-81
2021/11/28 06:05:35;;;;;;;5.80;4.70;;;;;;;;;;5036996;28;20203;-81
2021/11/28 06:08:01;;;;;;;5.03;4.53;;;;;;;;;;5030841;28;20216;-81
2021/11/28 06:10:26;;;;;;;5.53;4.53;;;2.80;1.00;;;;;;5030410;28;20194;-81
2021/11/28 06:12:52;;;;;;;6.43;5.00;;;2.90;1.00;;;;;;5039666;28;20574;-81
2021/11/28 06:15:18;;;;;;;5.40;4.07;;;2.80;1.00;;;;;;5031958;28;20187;-81
2021/11/28 06:17:43;;;;;;;7.13;4.87;;;2.90;1.00;;;;;;5034244;28;20282;-81
2021/11/28 06:20:09;;;;;;;6.43;4.83;;;2.90;1.00;;;;;;5034414;28;20202;-81
2021/11/28 06:22:36;;;;;;;6.83;4.87;;;3.20;1.00;;;;;;5029044;28;20199;-81
2021/11/28 06:25:03;;;;;;;5.53;4.93;;;2.80;1.00;;;;;;5027980;28;20196;-81
2021/11/28 06:27:29;;;;;;;5.13;4.70;;;2.80;1.00;;;;;;5040878;28;20226;-81
2021/11/28 06:29:55;;;;;;;5.90;5.40;;;4.00;1.00;;;;;;5035992;28;20299;-81
2021/11/28 06:32:21;;;;;;;5.83;5.10;;;2.90;1.00;;;;;;5042088;28;20234;-81
2021/11/28 06:34:47;;;;;;;6.73;5.30;;;2.80;1.00;;;;;;5040215;28;20192;-81
2021/11/28 06:37:13;;;;;;;6.77;5.20;;;;;;;;;;5035753;28;20254;-81
2021/11/28 06:39:39;;;;;;;6.57;5.00;;;;;;;;;;5042601;28;20274;-81
2021/11/28 06:42:05;;;;;;;5.43;5.00;;;;;;;;;;5039875;28;20199;-82
2021/11/28 06:44:31;;;;;;;6.03;5.43;;;2.80;1.00;;;;;;5026713;28;20188;-81
2021/11/28 06:46:56;;;;;;;7.03;4.83;;;2.90;1.00;;;;;;5039600;28;20282;-81
2021/11/28 06:49:26;;;;;;;5.20;4.70;;;2.90;1.00;;;;;;5040824;28;20184;-81
2021/11/28 06:51:56;;;;;;;7.57;6.10;;;4.40;1.00;;;;;;5037738;28;20187;-81
2021/11/28 06:54:22;;;;;;;5.37;4.90;;;2.90;1.00;;;;;;5043244;28;20206;-81
2021/11/28 06:56:48;;;;;;;4.63;4.23;;;2.90;1.00;;;;;;5038930;28;20210;-81
2021/11/28 06:59:14;;;;;;;6.63;4.80;;;;;;;;;;5031070;28;20254;-81
2021/11/28 07:01:40;;;;;;;5.67;5.17;;;;;;;;;;5034762;28;20640;-81
2021/11/28 07:04:06;;;;;;;5.63;5.20;;;;;;;;;;5033438;28;20279;-81
2021/11/28 07:06:32;;;;;;;5.63;5.13;;;2.90;1.00;;;;;;5042408;28;20203;-81
2021/11/28 07:08:57;;;;;;;5.43;4.87;;;2.90;1.00;;;;;;5049738;28;20264;-81
2021/11/28 07:11:23;;;;;;;7.40;6.13;;;2.90;1.00;;;;;;5026460;28;20294;-81
2021/11/28 07:13:50;;;;;;;7.37;5.20;;;4.10;1.00;;;;;;5040345;28;20188;-82
2021/11/28 07:16:17;;;;;;;7.20;5.27;;;;;;;;;;5038082;28;20184;-81
2021/11/28 07:18:44;;;;;;;7.27;5.30;;;2.80;1.00;;;;;;5040607;28;20290;-81
2021/11/28 07:21:14;;;;;;;6.13;5.10;;;2.80;1.00;;;;;;5033138;28;20195;-81
2021/11/28 07:23:40;;;;;;;5.47;4.97;;;2.80;1.00;;;;;;5032639;28;20200;-81
2021/11/28 07:26:07;;;;;;;5.73;5.07;;;2.80;1.00;;;;;;5035958;28;20216;-81
2021/11/28 07:28:33;;;;;;;5.17;4.77;;;6.50;1.00;;;;;;5036116;28;20394;-81
2021/11/28 07:31:00;;;;;;;7.10;5.03;;;;;;;;;;5037054;28;20337;-81
2021/11/28 07:33:26;;;;;;;5.50;5.00;;;;;;;;;;5034244;28;20179;-81
2021/11/28 07:35:51;;;;;;;5.30;4.80;;;;;;;;;;5034340;28;20278;-81
2021/11/28 07:38:17;;;;;;;5.03;4.37;;;2.90;1.00;;;;;;5034101;28;20193;-81
2021/11/28 07:40:44;;;;;;;7.20;5.27;;;;;;;;;;5028074;28;20283;-80
2021/11/28 07:43:11;;;;;;;6.00;5.40;;;;;;;;;;5035928;28;20212;-81
2021/11/28 07:45:37;;;;;;;6.77;5.53;;;3.10;1.00;;;;;;5033223;28;20255;-81
2021/11/28 07:48:03;;;;;;;6.07;5.20;;;2.60;1.00;;;;;;5030147;28;20243;-81
2021/11/28 07:50:29;;;;;;;5.63;5.03;;;3.10;1.00;;;;;;5035835;28;20652;-81
2021/11/28 07:52:54;;;;;;;5.70;5.20;;;3.10;1.00;;;;;;5036552;28;20201;-81
2021/11/28 07:55:20;;;;;;;6.70;5.00;;;3.10;1.00;;;;;;5035686;28;20196;-81
2021/11/28 07:57:46;;;;;;;5.47;4.97;;;;;;;;;;5037963;28;20238;-81
2021/11/28 08:00:13;;;;;;;6.03;5.43;;;3.10;1.00;;;;;;5039063;28;20192;-82
2021/11/28 08:02:38;;;;;;;6.13;5.53;;;3.40;1.00;;;;;;5027579;28;20251;-81
2021/11/28 08:05:05;;;;;;;5.67;5.17;;;3.80;1.00;;;;;;5032819;28;20192;-81
2021/11/28 08:07:31;;;;;;;5.93;5.33;;;3.10;1.00;;;;;;5034839;28;20216;-82
2021/11/28 08:09:57;;;;;;;5.83;5.30;;;5.10;1.00;;;;;;5041398;28;20252;-81
2021/11/28 08:12:24;;;;;;;6.27;5.17;;;3.20;1.00;;;;;;5036799;28;20207;-81
2021/11/28 08:14:50;;;;;;;5.33;4.83;;;;;;;;;;5038685;28;20194;-81
2021/11/28 08:17:15;;;;;;;5.87;5.37;;;3.30;1.00;;;;;;5036148;28;20179;-81
2021/11/28 08:19:41;;;;;;;5.63;5.13;;;3.20;1.00;;;;;;5028458;28;20233;-81
2021/11/28 08:22:08;;;;;;;6.47;5.13;;;3.20;1.00;;;;;;5038896;28;20192;-83
2021/11/28 08:24:33;;;;;;;6.40;5.30;;;3.10;1.00;;;;;;5038190;28;20667;-85
2021/11/28 08:27:00;;;;;;;6.80;6.03;;;3.10;1.00;;;;;;5029583;28;20199;-80
2021/11/28 08:29:27;;;;;;;5.90;5.40;;;;;;;;;;5026209;28;20195;-84
2021/11/28 08:31:53;;;;;;;6.07;5.47;;;3.10;1.00;;;;;;5033232;28;20233;-81
2021/11/28 08:34:19;;;;;;;6.03;5.43;;;3.60;1.00;;;;;;5038443;28;20190;-81
2021/11/28 08:36:45;;;;;;;6.30;5.70;;;3.40;1.00;;;;;;5040661;28;20253;-81
2021/11/28 08:39:11;;;;;;;6.50;5.90;;;3.30;1.00;;;;;;5034454;28;20195;-80
2021/11/28 08:41:38;;;;;;;7.30;5.87;;;3.20;1.00;;;;;;5027832;28;20195;-78
2021/11/28 08:44:04;;;;;;;6.87;5.40;;;3.40;1.00;;;;;;5023866;28;20203;-78
2021/11/28 08:46:30;;;;;;;7.97;5.43;;;3.40;1.00;;;;;;5031114;28;20223;-78
2021/11/28 08:48:57;;;;;;;8.43;6.00;;;3.30;1.00;;;;;;5024629;28;20552;-78
2021/11/28 08:51:25;;;;;;;6.40;5.80;;;3.40;1.00;;;;;;5028735;28;20193;-79
2021/11/28 08:53:51;;;;;;;6.73;5.93;;;3.50;1.00;;;;;;5029231;28;20564;-78
2021/11/28 08:56:17;;;;;;;6.57;5.97;;;3.50;1.00;;;;;;5027323;28;20275;-78
2021/11/28 08:58:43;;;;;;;5.83;5.30;;;;;;;;;;5027168;28;20412;-78
2021/11/28 09:01:09;;;;;;;6.30;5.70;;;3.50;1.00;;;;;;5039143;28;20277;-77
2021/11/28 09:03:34;;;;;;;6.23;5.43;;;3.50;1.00;;;;;;5028705;28;20253;-77
2021/11/28 09:06:00;;;;;;;6.33;5.37;;;3.50;1.00;;;;;;5025583;28;20204;-77
2021/11/28 09:08:26;;;;;;;6.30;5.60;;;3.50;1.00;;;;;;5022324;28;20579;-78
2021/11/28 09:10:51;;;;;;;6.40;5.33;;;3.50;1.00;;;;;;5028909;28;20191;-78
2021/11/28 09:13:18;;;;;;;6.33;5.70;;;3.50;1.00;;;;;;5027650;28;20216;-77
2021/11/28 09:15:45;;;;;;;6.47;5.87;;;3.50;1.00;;;;;;5031384;28;20217;-79
2021/11/28 09:18:15;;;;;;;6.00;5.40;;;3.50;1.00;;;;;;5030427;28;20217;-78
2021/11/28 09:20:45;;;;;;;5.97;5.47;;;3.60;1.00;;;;;;5032503;28;20192;-82
2021/11/28 09:25:37;;;;;;;6.33;5.73;;;3.40;1.00;;;;;;5035421;28;20232;-79
2021/11/28 09:28:05;;;;;;;5.97;5.43;;;3.50;1.00;;;;;;5035194;28;20216;-81
2021/11/28 09:30:32;;;;;;;6.63;6.03;;;3.50;1.00;;;;;;5020873;28;20631;-76
2021/11/28 09:33:00;;;;;;;6.40;5.83;;;3.40;1.00;;;;;;5025753;28;20198;-77
2021/11/28 09:35:25;;;;;;;7.30;6.03;;;3.50;1.00;;;;;;5022944;28;20202;-77
2021/11/28 09:37:53;;;;;;;7.07;6.27;;;3.40;1.00;;;;;;5016090;28;20188;-77
2021/11/28 09:40:21;;;;;;;5.80;5.30;;;3.40;1.00;;;;;;5033461;28;20183;-80
2021/11/28 09:42:55;;;;;;;8.20;6.20;;;3.50;1.00;;;;;;5034276;28;20226;-82
2021/11/28 09:45:23;;;;;;;6.70;6.10;;;3.50;1.00;;;;;;5042415;28;20283;-79
2021/11/28 09:47:49;;;;;;;8.50;7.20;;;;;;;;;;5035502;28;20222;-80
2021/11/28 09:50:16;;;;;;;7.40;6.60;;;3.50;1.00;;;;;;5022052;28;20188;-82
2021/11/28 09:52:44;;;;;;;6.73;6.10;;;3.50;1.00;;;;;;5031835;28;20965;-83
2021/11/28 09:55:11;;;;;;;6.43;5.83;;;3.50;1.00;;;;;;5026395;28;20211;-82
2021/11/28 09:57:37;;;;;;;6.30;5.90;;;;;;;;;;5035009;28;20199;-84
2021/11/28 10:00:06;;;;;;;6.57;5.97;;;3.60;1.00;;;;;;5028509;28;20196;-82
2021/11/28 10:02:35;;;;;;;7.40;6.57;;;3.60;1.00;;;;;;5032332;28;20222;-81
2021/11/28 10:05:05;;;;;;;7.23;5.97;;;3.70;1.00;;;;;;5026130;28;20195;-82
2021/11/28 10:07:31;;;;;;;5.80;5.30;;;3.70;1.00;;;;;;5033864;28;20699;-78
2021/11/28 10:09:57;;;;;;;10.13;6.07;;;3.70;1.00;;;;;;5034539;28;20215;-81
2021/11/28 10:12:31;;;;;;;7.63;6.57;;;3.80;1.00;;;;;;5030378;28;20688;-81
2021/11/28 10:14:59;;;;;;;7.87;6.27;;;6.90;1.00;;;;;;5035207;28;20223;-80
2021/11/28 10:17:31;;;;;;;6.43;5.83;;;3.80;1.00;;;;;;5034336;28;20199;-82
2021/11/28 10:19:59;;;;;;;5.83;5.30;;;3.80;1.00;;;;;;5035863;28;20728;-81
2021/11/28 10:22:26;;;;;;;6.00;5.10;;;3.80;1.00;;;;;;5034962;28;20200;-80
2021/11/28 10:25:04;;;;;;;7.20;6.30;;;4.20;1.00;;;;;;5031247;28;20195;-81
2021/11/28 10:27:37;;;;;;;7.60;5.90;;;4.00;1.00;;;;;;5040496;28;20227;-80
2021/11/28 10:30:05;;;;;;;7.00;5.97;;;6.00;1.00;;;;;;5031942;28;20201;-81
2021/11/28 10:32:32;;;;;;;7.07;6.30;;;4.10;1.00;;;;;;5026763;28;20278;-79
2021/11/28 10:34:58;;;;;;;6.47;5.70;;;;;;;;;;5031384;28;20187;-79
2021/11/28 10:37:24;;;;;;;6.13;5.53;;;;;;;;;;5030352;28;20189;-79
2021/11/28 10:39:58;;;;;;;6.37;5.40;;;4.10;1.00;;;;;;5008732;28;20205;-80
2021/11/28 10:42:30;;;;;;;5.80;5.17;;;4.10;1.00;;;;;;5026802;28;20253;-80
2021/11/28 10:45:15;;;;;;;5.77;5.23;;;4.10;1.00;;;;;;5024850;28;20196;-79
2021/11/28 10:47:46;;;;;;;8.57;5.20;;;4.00;1.00;;;;;;5030366;28;20231;-79
2021/11/28 10:50:15;;;;;;;7.87;5.33;;;4.70;1.00;;;;;;5028812;28;20197;-78
2021/11/28 10:52:42;;;;;;;6.07;5.43;;;4.20;1.00;;;;;;5029735;28;20194;-79
2021/11/28 10:55:18;;;;;;;5.53;5.03;;;4.20;1.00;;;;;;5019224;28;20185;-77
2021/11/28 10:57:45;;;;;;;7.03;5.20;;;4.30;1.00;;;;;;5016648;28;20655;-76
2021/11/28 11:00:12;;;;;;;6.77;5.47;;;4.40;1.00;;;;;;5021647;28;20201;-77
2021/11/28 11:02:40;;;;;;;5.97;5.47;;;4.40;1.00;;;;;;5024627;28;21142;-78
2021/11/28 11:05:12;;;;;;;5.27;4.77;;;4.30;1.00;;;;;;5004689;28;20208;-76
2021/11/28 11:07:44;;;;;;;5.73;5.23;;;7.00;1.00;;;;;;5020932;28;20248;-75
2021/11/28 11:10:22;;;;;;;5.70;4.90;;;4.20;1.00;;;;;;5043012;28;20736;-77
2021/11/28 11:12:48;;;;;;;6.10;5.13;;;4.30;1.00;;;;;;5021576;28;20316;-76
2021/11/28 11:15:30;;;;;;;4.60;4.17;;;4.50;1.00;;;;;;5028792;28;20227;-76
2021/11/28 11:17:57;;;;;;;6.77;5.60;;;4.30;1.00;;;;;;5025593;28;20228;-77
2021/11/28 11:20:25;;;;;;;5.23;4.83;;;4.30;1.00;;;;;;5026952;28;20254;-77
2021/11/28 11:22:51;;;;;;;5.47;5.07;;;4.20;1.00;;;;;;5027693;28;20192;-76
2021/11/28 11:25:17;;;;;;;7.90;5.40;;;4.40;1.00;;;;;;5032940;28;20222;-79
2021/11/28 11:27:45;;;;;;;5.17;4.67;;;6.20;1.00;;;;;;5030684;28;20223;-79
2021/11/28 11:30:15;;;;;;;5.50;4.97;;;4.40;1.00;;;;;;5031769;28;20204;-80
2021/11/28 11:32:43;;;;;;;5.00;4.50;;;4.30;1.00;;;;;;5037345;28;20195;-77
2021/11/28 11:35:14;;;;;;;4.83;4.43;;;4.20;1.00;;;;;;5024283;28;21718;-77
2021/11/28 11:37:40;;;;;;;5.20;4.70;;;4.10;1.00;;;;;;5027102;28;20196;-78
2021/11/28 11:40:11;;;;;;;5.20;4.70;;;4.10;1.00;;;;;;5032173;28;20613;-77
2021/11/28 11:42:39;;;;;;;4.93;4.43;;;4.10;1.00;;;;;;5029174;28;20221;-78
2021/11/28 11:45:07;;;;;;;5.90;5.30;;;4.20;1.00;;;;;;5029212;28;20707;-77
2021/11/28 11:47:33;;;;;;;5.07;4.57;;;4.20;1.00;;;;;;5040783;28;20235;-78
2021/11/28 11:49:58;;;;;;;5.40;4.90;;;4.30;1.00;;;;;;5034314;28;20194;-82
2021/11/28 11:52:25;;;;;;;5.27;4.37;;;;;;;;;;5031798;28;20186;-83
2021/11/28 11:55:15;;;;;;;5.20;4.70;;;4.30;1.00;;;;;;5031079;28;20685;-82
2021/11/28 11:58:16;;;;;;;4.37;3.97;;;4.30;1.00;;;;;;5039027;28;20192;-81
2021/11/28 12:00:56;;;;;;;4.67;4.27;;;4.30;1.00;;;;;;5018487;28;20258;-78
2021/11/28 12:03:22;;;;;;;4.73;4.33;;;4.30;1.00;;;;;;5031989;28;20220;-81
2021/11/28 12:05:59;;;;;;;5.33;4.57;;;4.40;1.00;;;;;;5031230;28;20188;-81
2021/11/28 12:08:28;;;;;;;4.63;4.23;;;4.40;1.00;;;;;;5034887;28;20209;-81
2021/11/28 12:10:56;;;;;;;5.23;4.80;;;4.30;1.00;;;;;;5030230;28;20207;-80
2021/11/28 12:13:25;;;;;;;5.03;4.63;;;4.40;1.00;;;;;;5031901;28;20209;-79
2021/11/28 12:15:52;;;;;;;5.60;5.10;;;4.20;1.00;;;;;;5033814;28;20208;-79
2021/11/28 12:18:41;;;;;;;7.67;5.03;;;4.20;1.00;;;;;;5022646;28;20196;-76
2021/11/28 12:21:06;;;;;;;4.57;4.17;;;4.30;1.00;;;;;;5019150;28;20196;-76
2021/11/28 12:24:02;;;;;;;4.67;4.30;;;4.30;1.00;;;;;;5016163;28;20196;-76
2021/11/28 12:26:29;;;;;;;5.20;4.80;;;4.30;1.00;;;;;;5026952;28;20554;-75
2021/11/28 12:28:59;;;;;;;4.73;4.33;;;4.40;1.00;;;;;;5025504;28;20207;-76
2021/11/28 12:31:31;;;;;;;6.43;4.47;;;4.40;1.00;;;;;;5022807;28;20182;-77
2021/11/28 12:34:07;;;;;;;5.60;4.40;;;4.40;1.00;;;;;;5024742;28;20189;-76
2021/11/28 12:36:39;;;;;;;5.73;4.10;;;4.50;1.00;;;;;;5018798;28;20515;-77
2021/11/28 12:39:16;;;;;;;3.80;3.50;;;4.50;1.00;;;;;;5034592;28;20247;-78
2021/11/28 12:41:50;;;;;;;3.80;3.50;;;4.40;1.00;;;;;;5026708;28;20180;-79
2021/11/28 12:44:28;;;;;;;3.73;3.43;;;4.40;1.00;;;;;;5025432;28;20196;-78
2021/11/28 12:46:57;;;;;;;4.37;3.67;;;4.50;1.00;;;;;;5031197;28;20541;-77
2021/11/28 12:49:35;;;;;;;4.53;3.83;;;4.40;1.00;;;;;;5025122;28;20231;-78
2021/11/28 12:52:22;;;;;;;5.07;4.50;;;4.40;1.00;;;;;;5047161;28;20208;-78
2021/11/28 12:55:07;;;;;;;4.43;4.03;;;4.40;1.00;;;;;;5020388;28;20292;-77
2021/11/28 12:57:42;;;;;;;5.10;3.80;;;4.40;1.00;;;;;;5025755;28;20219;-78
2021/11/28 13:00:13;;;;;;;5.43;3.80;;;4.40;1.00;;;;;;5022621;28;20182;-78
2021/11/28 13:02:44;;;;;;;4.03;3.67;;;4.30;1.00;;;;;;5023178;28;20512;-81
2021/11/28 13:05:35;;;;;;;5.30;4.10;;;4.40;1.00;;;;;;5026529;28;20193;-79
2021/11/28 13:08:01;;;;;;;4.87;4.10;;;4.40;1.00;;;;;;5029594;28;20216;-79
2021/11/28 13:10:27;;;;;;;7.30;4.30;;;5.50;1.00;;;;;;5027885;28;20188;-77
2021/11/28 13:13:18;;;;;;;6.20;4.53;;;4.50;1.00;;;;;;5046543;28;20239;-77
2021/11/28 13:16:07;;;;;;;5.03;4.10;;;4.50;1.00;;;;;;5020505;28;20200;-77
2021/11/28 13:18:40;;;;;;;4.40;3.83;;;4.50;1.00;;;;;;5023906;28;20232;-77
2021/11/28 13:21:15;;;;;;;4.33;3.70;;;4.40;1.00;;;;;;5030820;28;20193;-79
2021/11/28 13:23:44;;;;;;;4.97;3.60;;;4.50;1.00;;;;;;5026080;28;20192;-79
2021/11/28 13:26:15;;;;;;;4.03;3.53;;;4.50;1.00;;;;;;5030712;28;20199;-80
2021/11/28 13:28:42;;;;;;;4.07;3.50;;;4.50;1.00;;;;;;5025113;28;20302;-76
2021/11/28 13:31:15;;;;;;;3.87;3.57;;;4.40;1.00;;;;;;5025835;28;20175;-78
2021/11/28 13:33:51;;;;;;;4.20;3.80;;;4.40;1.00;;;;;;5024098;28;20735;-78
2021/11/28 13:36:17;;;;;;;4.07;3.67;;;4.30;1.00;;;;;;5026370;28;20184;-79
2021/11/28 13:38:47;;;;;;;3.67;3.40;;;4.30;1.00;;;;;;5012541;28;20216;-78